createdAt,value
2023-04-25T00:01:27.428Z,16.99
2023-04-25T00:06:26.911Z,16.59
2023-04-25T00:11:24.468Z,16.42
2023-04-25T00:16:21.346Z,16.19
2023-04-25T00:21:20.393Z,16.25
2023-04-25T00:26:17.837Z,16.21
2023-04-25T00:31:15.489Z,15.85
2023-04-25T00:36:12.458Z,15.82
2023-04-25T00:41:09.378Z,15.81
2023-04-25T00:46:06.176Z,15.82
2023-04-25T00:51:03.765Z,15.80
2023-04-25T00:56:00.408Z,15.95
2023-04-25T01:00:58.316Z,15.92
2023-04-25T01:05:55.473Z,16.11
2023-04-25T01:10:52.841Z,16.11
2023-04-25T01:15:49.699Z,16.14
2023-04-25T01:20:46.773Z,16.21
2023-04-25T01:25:44.262Z,16.19
2023-04-25T01:30:41.619Z,16.13
2023-04-25T01:35:38.555Z,16.26
2023-04-25T01:40:36.548Z,16.55
2023-04-25T01:45:34.081Z,16.92
2023-04-25T01:50:30.987Z,16.81
2023-04-25T01:55:27.759Z,16.92
2023-04-25T02:00:35.028Z,16.84
2023-04-25T02:05:35.524Z,16.91
2023-04-25T02:10:33.054Z,17.23
2023-04-25T02:15:44.744Z,17.67
2023-04-25T02:20:46.068Z,17.85
2023-04-25T02:25:43.481Z,17.98
2023-04-25T02:30:40.305Z,18.23
2023-04-25T02:35:37.635Z,18.21
2023-04-25T02:40:34.241Z,18.21
2023-04-25T02:45:40.346Z,18.38
2023-04-25T02:50:37.747Z,18.41
2023-04-25T02:55:34.780Z,18.49
2023-04-25T03:00:33.207Z,18.49
2023-04-25T03:05:29.956Z,18.42
2023-04-25T03:10:27.603Z,18.54
2023-04-25T03:15:26.991Z,18.55
2023-04-25T03:20:23.909Z,18.62
2023-04-25T03:25:20.705Z,18.71
2023-04-25T03:30:18.392Z,18.70
2023-04-25T03:35:15.742Z,18.74
2023-04-25T03:40:12.583Z,18.82
2023-04-25T03:45:35.792Z,18.54
2023-04-25T03:50:32.562Z,18.78
2023-04-25T03:55:29.627Z,18.83
2023-04-25T04:00:27.189Z,18.62
2023-04-25T04:05:28.006Z,18.76
2023-04-25T04:10:27.082Z,18.77
2023-04-25T04:15:25.857Z,18.67
2023-04-25T04:20:26.505Z,18.66
2023-04-25T04:25:23.408Z,18.62
2023-04-25T04:30:58.827Z,18.53
2023-04-25T04:35:57.875Z,18.47
2023-04-25T04:40:54.855Z,18.33
2023-04-25T04:46:13.806Z,18.43
2023-04-25T04:51:23.692Z,18.44
2023-04-25T04:56:57.815Z,18.36
2023-04-25T05:02:20.723Z,18.30
2023-04-25T05:07:27.405Z,18.41
2023-04-25T05:12:36.368Z,18.60
2023-04-25T05:17:44.423Z,18.61
2023-04-25T05:22:42.386Z,18.62
2023-04-25T05:27:44.000Z,18.64
2023-04-25T05:32:59.278Z,18.62
2023-04-25T05:37:58.283Z,18.60
2023-04-25T05:43:10.302Z,18.48
2023-04-25T05:48:28.790Z,18.22
2023-04-25T05:53:46.577Z,18.10
2023-04-25T05:58:46.625Z,17.97
2023-04-25T06:03:49.258Z,17.56
2023-04-25T06:08:48.756Z,17.45
2023-04-25T06:13:45.623Z,17.55
2023-04-25T06:18:42.784Z,17.78
2023-04-25T06:23:42.928Z,17.83
2023-04-25T06:28:43.546Z,17.91
2023-04-25T06:33:40.657Z,18.05
2023-04-25T06:38:38.828Z,17.96
2023-04-25T06:43:36.476Z,17.83
2023-04-25T06:48:58.568Z,17.81
2023-04-25T06:54:09.977Z,17.89
2023-04-25T06:59:36.905Z,17.95
2023-04-25T07:05:08.603Z,17.96
2023-04-25T07:12:09.238Z,17.31
2023-04-25T07:16:28.047Z,16.43
2023-04-25T07:21:46.225Z,16.25
2023-04-25T07:26:51.451Z,16.31
2023-04-25T07:44:06.373Z,16.86
2023-04-25T07:49:44.743Z,16.63
2023-04-25T07:54:48.868Z,16.34
2023-04-25T08:00:36.196Z,16.40
2023-04-25T08:06:43.746Z,16.99
2023-04-25T08:11:51.449Z,17.56
2023-04-25T08:22:39.743Z,17.67
2023-04-25T08:40:59.239Z,18.06
2023-04-25T08:46:13.421Z,18.30
2023-04-25T08:51:58.926Z,18.43
2023-04-25T08:56:58.038Z,18.64
2023-04-25T09:01:56.478Z,18.72
2023-04-25T09:06:53.987Z,18.75
2023-04-25T09:11:51.327Z,18.85
2023-04-25T09:17:03.963Z,18.41
2023-04-25T09:22:13.239Z,18.74
2023-04-25T09:27:10.857Z,18.87
2023-04-25T09:32:15.029Z,19.09
2023-04-25T09:37:13.419Z,19.18
2023-04-25T09:42:46.049Z,19.45
2023-04-25T09:47:44.595Z,19.68
2023-04-25T09:53:03.646Z,19.87
2023-04-25T09:58:06.190Z,19.94
2023-04-25T10:03:04.595Z,19.98
2023-04-25T10:08:23.888Z,20.10
2023-04-25T10:13:21.269Z,20.13
2023-04-25T10:18:21.610Z,20.22
2023-04-25T10:23:18.805Z,20.25
2023-04-25T10:28:21.262Z,20.30
2023-04-25T10:33:18.830Z,20.33
2023-04-25T10:38:16.026Z,20.43
2023-04-25T10:43:32.824Z,20.37
2023-04-25T10:48:31.432Z,20.46
2023-04-25T10:53:31.831Z,20.22
2023-04-25T10:58:28.777Z,20.14
2023-04-25T11:03:26.232Z,20.31
2023-04-25T11:08:31.000Z,19.86
2023-04-25T11:13:30.678Z,19.76
2023-04-25T11:18:28.044Z,19.98
2023-04-25T11:23:25.497Z,19.56
2023-04-25T11:28:25.592Z,19.43
2023-04-25T11:33:24.619Z,19.52
2023-04-25T11:38:22.574Z,19.33
2023-04-25T11:43:21.846Z,19.31
2023-04-25T11:48:19.494Z,19.54
2023-04-25T11:53:18.977Z,19.12
2023-04-25T11:58:16.100Z,18.92
2023-04-25T12:03:13.903Z,18.52
2023-04-25T12:08:16.218Z,18.45
2023-04-25T12:13:20.255Z,18.39
2023-04-25T12:18:21.809Z,18.14
2023-04-25T12:23:25.944Z,18.32
2023-04-25T12:28:24.285Z,18.34
2023-04-25T12:33:25.918Z,18.45
2023-04-25T12:38:29.539Z,18.67
2023-04-25T12:43:34.177Z,18.93
2023-04-25T12:48:34.477Z,18.89
2023-04-25T12:53:32.257Z,18.99
2023-04-25T12:58:30.246Z,18.78
2023-04-25T13:03:27.422Z,18.98
2023-04-25T13:08:27.499Z,19.34
2023-04-25T13:13:24.446Z,19.76
2023-04-25T13:18:21.508Z,19.75
2023-04-25T13:23:18.336Z,19.82
2023-04-25T13:28:16.533Z,19.86
2023-04-25T13:33:13.486Z,20.04
2023-04-25T13:38:10.407Z,19.97
2023-04-25T13:43:07.048Z,20.07
2023-04-25T13:48:04.845Z,19.84
2023-04-25T13:53:01.832Z,19.92
2023-04-25T13:57:58.900Z,19.80
2023-04-25T14:02:56.110Z,19.91
2023-04-25T14:07:53.958Z,20.04
2023-04-25T14:12:50.694Z,19.96
2023-04-25T14:17:48.924Z,19.94
2023-04-25T14:22:45.937Z,19.97
2023-04-25T14:27:44.460Z,20.02
2023-04-25T14:32:43.767Z,19.94
2023-04-25T14:37:40.694Z,20.04
2023-04-25T14:42:39.707Z,20.06
2023-04-25T14:47:38.870Z,20.29
2023-04-25T14:52:35.790Z,19.88
2023-04-25T14:57:32.614Z,19.66
2023-04-25T15:02:29.517Z,19.09
2023-04-25T15:07:27.154Z,18.60
2023-04-25T15:12:24.196Z,18.32
2023-04-25T15:17:20.863Z,18.37
2023-04-25T15:22:20.781Z,17.49
2023-04-25T15:27:18.584Z,17.06
2023-04-25T15:32:15.634Z,16.79
2023-04-25T15:37:12.406Z,16.95
2023-04-25T15:42:09.079Z,16.75
2023-04-25T15:47:06.476Z,16.15
2023-04-25T15:52:03.288Z,16.12
2023-04-25T15:57:00.145Z,15.79
2023-04-25T16:01:57.086Z,15.94
2023-04-25T16:06:54.673Z,15.77
2023-04-25T16:11:51.596Z,15.67
2023-04-25T16:16:48.344Z,15.60
2023-04-25T16:21:45.266Z,15.72
2023-04-25T16:26:43.013Z,15.76
2023-04-25T16:31:39.775Z,15.63
2023-04-25T16:36:36.622Z,15.68
2023-04-25T16:41:33.605Z,15.38
2023-04-25T16:46:31.085Z,15.73
2023-04-25T16:51:31.944Z,15.41
2023-04-25T16:56:28.606Z,15.86
2023-04-25T17:01:34.522Z,15.69
2023-04-25T17:06:31.379Z,15.36
2023-04-25T17:11:28.045Z,14.90
2023-04-25T17:16:33.842Z,15.30
2023-04-25T17:21:31.435Z,14.88
2023-04-25T17:26:28.127Z,14.92
2023-04-25T17:31:26.406Z,14.92
2023-04-25T17:36:23.193Z,14.86
2023-04-25T17:41:20.598Z,14.65
2023-04-25T17:46:17.322Z,14.40
2023-04-25T17:51:14.182Z,14.61
2023-04-25T17:56:25.430Z,14.54
2023-04-25T18:01:24.363Z,14.37
2023-04-25T18:06:21.070Z,14.41
2023-04-25T18:11:17.848Z,14.58
2023-04-25T18:16:15.372Z,14.84
2023-04-25T18:21:12.837Z,15.10
2023-04-25T18:26:09.712Z,15.29
2023-04-25T18:31:06.417Z,15.30
2023-04-25T18:36:03.541Z,15.36
2023-04-25T18:41:18.403Z,15.30
2023-04-25T18:46:21.842Z,15.46
2023-04-25T18:51:18.824Z,15.38
2023-04-25T18:56:16.791Z,15.43
2023-04-25T19:01:13.519Z,15.40
2023-04-25T19:06:10.568Z,15.51
2023-04-25T19:11:20.622Z,15.38
2023-04-25T19:16:18.758Z,15.47
2023-04-25T19:21:15.730Z,15.40
2023-04-25T19:26:12.554Z,15.20
2023-04-25T19:31:11.394Z,14.85
2023-04-25T19:36:08.705Z,14.31
2023-04-25T19:41:05.843Z,13.70
2023-04-25T19:46:02.732Z,13.79
2023-04-25T19:50:59.344Z,13.60
2023-04-25T19:55:58.420Z,13.48
2023-04-25T20:00:57.317Z,13.59
2023-04-25T20:05:54.267Z,13.51
2023-04-25T20:10:50.786Z,13.57
2023-04-25T20:15:50.439Z,13.44
2023-04-25T20:20:47.157Z,13.46
2023-04-25T20:25:43.764Z,13.50
2023-04-25T20:30:41.184Z,13.28
2023-04-25T20:35:38.465Z,13.23
2023-04-25T20:40:35.053Z,13.37
2023-04-25T20:45:33.201Z,13.55
2023-04-25T20:50:29.852Z,13.44
2023-04-25T20:55:27.260Z,13.58
2023-04-25T21:00:27.011Z,13.57
2023-04-25T21:05:24.010Z,13.71
2023-04-25T21:10:23.049Z,13.74
2023-04-25T21:15:24.210Z,13.63
2023-04-25T21:20:21.576Z,13.78
2023-04-25T21:25:20.054Z,13.78
2023-04-25T21:30:17.137Z,13.67
2023-04-25T21:35:14.859Z,13.76
2023-04-25T21:40:12.346Z,13.97
2023-04-25T21:45:09.721Z,14.25
2023-04-25T21:50:07.442Z,14.24
2023-04-25T21:55:05.743Z,14.18
2023-04-25T22:00:03.650Z,14.09
2023-04-25T22:05:02.283Z,14.41
2023-04-25T22:09:59.128Z,14.55
2023-04-25T22:14:56.522Z,14.62
2023-04-25T22:19:53.245Z,14.58
2023-04-25T22:24:49.982Z,14.58
2023-04-25T22:29:47.302Z,14.57
2023-04-25T22:34:45.048Z,14.84
2023-04-25T22:39:41.732Z,14.96
2023-04-25T22:44:38.317Z,14.85
2023-04-25T22:49:34.848Z,14.58
2023-04-25T22:54:32.067Z,14.48
2023-04-25T22:59:28.991Z,14.35
2023-04-25T23:04:25.870Z,14.24
2023-04-25T23:09:23.166Z,14.12
2023-04-25T23:14:23.249Z,14.24
2023-04-25T23:19:19.818Z,14.45
2023-04-25T23:24:16.602Z,14.46
2023-04-25T23:29:13.211Z,14.55
2023-04-25T23:34:13.120Z,14.62
2023-04-25T23:39:09.881Z,14.53
2023-04-25T23:44:08.447Z,14.48
2023-04-25T23:49:05.255Z,14.59
2023-04-25T23:54:05.317Z,14.47
2023-04-25T23:59:03.088Z,14.50
